Temple Hills, Maryland
Current Conditions -  °F | °C
As of 3:58 PM on Thursday 23 Oct 2014 (Local Time) from KADW Reporting Station
Overcast Overcast  
Wind Chill: 61°   Ceiling: 4400
Heat Index: 61°   Visibility: 10mi
Dew Point: 46°   Wind: 21mph
Humidity: 56%   Direction: 320°NW
Pressure: 29.85"   Gusts: 24mph
Location:  38.82°N, 76.95°W
Report Text: KADW 231958Z AUTO 32018G21KT 10SM OVC044 16/08 A2985 RMK AO2 PK WND 30029/13 SLP115 T01630075 $
Loading
Personal Weather Stations






























Interactive Weather Map
Tropical Storm Tracking
New forecast layout! Learn more

10-Day Weather Forecast

Advertisements
Track Severe Weather on mobile